sensor_id;sensor_type;location;lat;lon;timestamp;pressure;altitude;pressure_sealevel;temperature;humidity
14242;BME280;7205;50.864;12.766;2023-04-08T00:02:20;97882.38;;;6.68;74.88
14242;BME280;7205;50.864;12.766;2023-04-08T00:04:47;97881.56;;;6.68;75.15
14242;BME280;7205;50.864;12.766;2023-04-08T00:07:13;97879.91;;;6.67;74.98
14242;BME280;7205;50.864;12.766;2023-04-08T00:09:40;97886.97;;;6.66;75.22
14242;BME280;7205;50.864;12.766;2023-04-08T00:12:07;97883.78;;;6.63;74.95
14242;BME280;7205;50.864;12.766;2023-04-08T00:14:34;97885.19;;;6.57;75.06
14242;BME280;7205;50.864;12.766;2023-04-08T00:17:02;97881.19;;;6.53;75.32
14242;BME280;7205;50.864;12.766;2023-04-08T00:19:31;97881.34;;;6.52;75.92
14242;BME280;7205;50.864;12.766;2023-04-08T00:21:58;97884.78;;;6.52;76.19
14242;BME280;7205;50.864;12.766;2023-04-08T00:24:25;97882.16;;;6.52;76.19
14242;BME280;7205;50.864;12.766;2023-04-08T00:26:52;97880.53;;;6.51;76.17
14242;BME280;7205;50.864;12.766;2023-04-08T00:29:19;97874.44;;;6.51;76.16
14242;BME280;7205;50.864;12.766;2023-04-08T00:31:45;97879.00;;;6.49;76.44
14242;BME280;7205;50.864;12.766;2023-04-08T00:34:13;97880.00;;;6.48;76.41
14242;BME280;7205;50.864;12.766;2023-04-08T00:36:41;97882.59;;;6.48;76.88
14242;BME280;7205;50.864;12.766;2023-04-08T00:39:07;97881.78;;;6.47;76.77
14242;BME280;7205;50.864;12.766;2023-04-08T00:41:35;97887.72;;;6.49;77.58
14242;BME280;7205;50.864;12.766;2023-04-08T00:44:01;97881.47;;;6.50;77.48
14242;BME280;7205;50.864;12.766;2023-04-08T00:46:30;97884.94;;;6.51;77.38
14242;BME280;7205;50.864;12.766;2023-04-08T00:48:57;97884.09;;;6.50;77.53
14242;BME280;7205;50.864;12.766;2023-04-08T00:51:24;97894.59;;;6.50;77.80
14242;BME280;7205;50.864;12.766;2023-04-08T00:53:52;97891.97;;;6.50;78.14
14242;BME280;7205;50.864;12.766;2023-04-08T00:56:20;97878.44;;;6.55;78.54
14242;BME280;7205;50.864;12.766;2023-04-08T00:58:47;97877.47;;;6.56;78.70
14242;BME280;7205;50.864;12.766;2023-04-08T01:01:21;97884.09;;;6.60;78.70
14242;BME280;7205;50.864;12.766;2023-04-08T01:03:57;97884.88;;;6.60;78.85
14242;BME280;7205;50.864;12.766;2023-04-08T01:06:31;97889.44;;;6.58;78.66
14242;BME280;7205;50.864;12.766;2023-04-08T01:09:05;97894.03;;;6.56;78.77
14242;BME280;7205;50.864;12.766;2023-04-08T01:11:33;97896.81;;;6.55;78.98
14242;BME280;7205;50.864;12.766;2023-04-08T01:14:03;97887.28;;;6.54;79.23
14242;BME280;7205;50.864;12.766;2023-04-08T01:16:32;97889.75;;;6.55;79.41
14242;BME280;7205;50.864;12.766;2023-04-08T01:19:00;97901.06;;;6.56;79.69
14242;BME280;7205;50.864;12.766;2023-04-08T01:21:27;97890.28;;;6.59;79.86
14242;BME280;7205;50.864;12.766;2023-04-08T01:23:58;97891.81;;;6.61;79.89
14242;BME280;7205;50.864;12.766;2023-04-08T01:26:29;97890.00;;;6.62;80.05
14242;BME280;7205;50.864;12.766;2023-04-08T01:28:59;97894.59;;;6.60;80.12
14242;BME280;7205;50.864;12.766;2023-04-08T01:31:27;97895.69;;;6.57;79.86
14242;BME280;7205;50.864;12.766;2023-04-08T01:33:57;97891.56;;;6.55;80.15
14242;BME280;7205;50.864;12.766;2023-04-08T01:36:25;97893.19;;;6.56;80.28
14242;BME280;7205;50.864;12.766;2023-04-08T01:38:54;97890.44;;;6.57;80.71
14242;BME280;7205;50.864;12.766;2023-04-08T01:41:21;97887.50;;;6.60;81.03
14242;BME280;7205;50.864;12.766;2023-04-08T01:43:52;97892.63;;;6.62;81.15
14242;BME280;7205;50.864;12.766;2023-04-08T01:46:19;97894.44;;;6.61;80.67
14242;BME280;7205;50.864;12.766;2023-04-08T01:48:47;97889.34;;;6.60;80.88
14242;BME280;7205;50.864;12.766;2023-04-08T01:51:15;97887.50;;;6.60;81.39
14242;BME280;7205;50.864;12.766;2023-04-08T01:53:42;97888.06;;;6.64;81.66
14242;BME280;7205;50.864;12.766;2023-04-08T01:56:11;97890.38;;;6.67;81.58
14242;BME280;7205;50.864;12.766;2023-04-08T01:58:42;97884.34;;;6.66;81.53
14242;BME280;7205;50.864;12.766;2023-04-08T02:01:16;97886.13;;;6.66;81.68
14242;BME280;7205;50.864;12.766;2023-04-08T02:03:45;97888.91;;;6.64;81.86
14242;BME280;7205;50.864;12.766;2023-04-08T02:06:13;97885.44;;;6.64;81.53
14242;BME280;7205;50.864;12.766;2023-04-08T02:08:39;97881.16;;;6.63;81.58
14242;BME280;7205;50.864;12.766;2023-04-08T02:11:06;97878.53;;;6.63;81.58
14242;BME280;7205;50.864;12.766;2023-04-08T02:13:33;97881.31;;;6.61;81.79
14242;BME280;7205;50.864;12.766;2023-04-08T02:16:05;97878.00;;;6.59;81.63
14242;BME280;7205;50.864;12.766;2023-04-08T02:18:38;97881.88;;;6.55;81.92
14242;BME280;7205;50.864;12.766;2023-04-08T02:21:13;97878.56;;;6.53;82.35
14242;BME280;7205;50.864;12.766;2023-04-08T02:23:41;97881.06;;;6.55;82.38
14242;BME280;7205;50.864;12.766;2023-04-08T02:26:12;97886.31;;;6.55;82.43
14242;BME280;7205;50.864;12.766;2023-04-08T02:28:40;97881.88;;;6.55;83.05
14242;BME280;7205;50.864;12.766;2023-04-08T02:31:09;97881.88;;;6.55;83.10
14242;BME280;7205;50.864;12.766;2023-04-08T02:33:41;97879.25;;;6.55;83.19
14242;BME280;7205;50.864;12.766;2023-04-08T02:36:10;97888.66;;;6.58;83.50
14242;BME280;7205;50.864;12.766;2023-04-08T02:38:37;97888.50;;;6.59;83.44
14242;BME280;7205;50.864;12.766;2023-04-08T02:41:05;97885.03;;;6.59;83.82
14242;BME280;7205;50.864;12.766;2023-04-08T02:43:31;97891.97;;;6.60;83.79
14242;BME280;7205;50.864;12.766;2023-04-08T02:46:04;97885.03;;;6.59;83.67
14242;BME280;7205;50.864;12.766;2023-04-08T02:48:32;97879.41;;;6.54;83.37
14242;BME280;7205;50.864;12.766;2023-04-08T02:51:00;97877.91;;;6.51;83.72
14242;BME280;7205;50.864;12.766;2023-04-08T02:53:27;97880.78;;;6.48;84.13
14242;BME280;7205;50.864;12.766;2023-04-08T02:55:54;97888.81;;;6.47;84.13
14242;BME280;7205;50.864;12.766;2023-04-08T02:58:20;97892.56;;;6.44;84.06
14242;BME280;7205;50.864;12.766;2023-04-08T03:00:47;97896.28;;;6.42;84.44
14242;BME280;7205;50.864;12.766;2023-04-08T03:03:14;97898.25;;;6.40;84.55
14242;BME280;7205;50.864;12.766;2023-04-08T03:05:41;97890.38;;;6.40;84.92
14242;BME280;7205;50.864;12.766;2023-04-08T03:08:09;97895.31;;;6.43;85.59
14242;BME280;7205;50.864;12.766;2023-04-08T03:10:35;97901.13;;;6.46;85.73
14242;BME280;7205;50.864;12.766;2023-04-08T03:13:02;97906.75;;;6.51;86.05
14242;BME280;7205;50.864;12.766;2023-04-08T03:15:29;97904.00;;;6.53;86.20
14242;BME280;7205;50.864;12.766;2023-04-08T03:17:56;97898.75;;;6.53;86.18
14242;BME280;7205;50.864;12.766;2023-04-08T03:20:23;97909.25;;;6.53;86.33
14242;BME280;7205;50.864;12.766;2023-04-08T03:22:50;97905.78;;;6.52;86.22
14242;BME280;7205;50.864;12.766;2023-04-08T03:25:18;97904.00;;;6.53;86.35
14242;BME280;7205;50.864;12.766;2023-04-08T03:27:44;97909.25;;;6.53;86.68
14242;BME280;7205;50.864;12.766;2023-04-08T03:30:11;97912.00;;;6.51;86.73
14242;BME280;7205;50.864;12.766;2023-04-08T03:32:38;97906.22;;;6.48;86.41
14242;BME280;7205;50.864;12.766;2023-04-08T03:35:05;97912.56;;;6.45;86.93
14242;BME280;7205;50.864;12.766;2023-04-08T03:37:32;97907.06;;;6.38;86.87
14242;BME280;7205;50.864;12.766;2023-04-08T03:39:59;97903.34;;;6.31;86.58
14242;BME280;7205;50.864;12.766;2023-04-08T03:42:27;97915.91;;;6.28;87.08
14242;BME280;7205;50.864;12.766;2023-04-08T03:44:54;97907.63;;;6.23;87.47
14242;BME280;7205;50.864;12.766;2023-04-08T03:47:21;97913.31;;;6.18;87.40
14242;BME280;7205;50.864;12.766;2023-04-08T03:49:48;97918.72;;;6.17;87.57
14242;BME280;7205;50.864;12.766;2023-04-08T03:52:15;97918.00;;;6.15;88.29
14242;BME280;7205;50.864;12.766;2023-04-08T03:54:41;97920.09;;;6.11;88.48
14242;BME280;7205;50.864;12.766;2023-04-08T03:57:08;97921.91;;;6.11;88.68
14242;BME280;7205;50.864;12.766;2023-04-08T03:59:37;97919.13;;;6.12;89.25
14242;BME280;7205;50.864;12.766;2023-04-08T04:02:05;97929.63;;;6.12;89.46
14242;BME280;7205;50.864;12.766;2023-04-08T04:04:32;97934.16;;;6.10;89.95
14242;BME280;7205;50.864;12.766;2023-04-08T04:07:01;97933.34;;;6.10;89.62
14242;BME280;7205;50.864;12.766;2023-04-08T04:09:28;97943.00;;;6.09;90.37
14242;BME280;7205;50.864;12.766;2023-04-08T04:11:54;97948.13;;;6.11;90.06
14242;BME280;7205;50.864;12.766;2023-04-08T04:14:21;97943.13;;;6.08;90.36
14242;BME280;7205;50.864;12.766;2023-04-08T04:16:49;97945.75;;;6.08;90.72
14242;BME280;7205;50.864;12.766;2023-04-08T04:19:16;97937.38;;;6.04;90.61
14242;BME280;7205;50.864;12.766;2023-04-08T04:21:43;97940.66;;;6.06;91.32
14242;BME280;7205;50.864;12.766;2023-04-08T04:24:10;97928.25;;;6.08;91.65
14242;BME280;7205;50.864;12.766;2023-04-08T04:26:39;97943.00;;;6.09;91.60
14242;BME280;7205;50.864;12.766;2023-04-08T04:29:06;97929.63;;;6.12;91.83
14242;BME280;7205;50.864;12.766;2023-04-08T04:31:32;97939.81;;;6.15;92.60
14242;BME280;7205;50.864;12.766;2023-04-08T04:34:01;97939.38;;;6.20;92.34
14242;BME280;7205;50.864;12.766;2023-04-08T04:36:27;97940.50;;;6.17;93.12
14242;BME280;7205;50.864;12.766;2023-04-08T04:38:54;97956.09;;;6.19;93.40
14242;BME280;7205;50.864;12.766;2023-04-08T04:41:21;97943.69;;;6.21;92.98
14242;BME280;7205;50.864;12.766;2023-04-08T04:43:48;97953.19;;;6.22;92.50
14242;BME280;7205;50.864;12.766;2023-04-08T04:46:14;97949.88;;;6.20;92.89
14242;BME280;7205;50.864;12.766;2023-04-08T04:48:41;97954.72;;;6.15;93.40
14242;BME280;7205;50.864;12.766;2023-04-08T04:51:09;97955.69;;;6.14;94.24
14242;BME280;7205;50.864;12.766;2023-04-08T04:53:36;97956.66;;;6.22;93.63
14242;BME280;7205;50.864;12.766;2023-04-08T04:56:03;97968.34;;;6.28;94.05
14242;BME280;7205;50.864;12.766;2023-04-08T04:58:30;97963.00;;;6.29;93.49
14242;BME280;7205;50.864;12.766;2023-04-08T05:00:57;97957.59;;;6.31;93.52
14242;BME280;7205;50.864;12.766;2023-04-08T05:03:23;97965.47;;;6.31;93.56
14242;BME280;7205;50.864;12.766;2023-04-08T05:05:50;97966.72;;;6.27;93.50
14242;BME280;7205;50.864;12.766;2023-04-08T05:08:20;97955.66;;;6.23;93.38
14242;BME280;7205;50.864;12.766;2023-04-08T05:10:46;97965.47;;;6.21;93.29
14242;BME280;7205;50.864;12.766;2023-04-08T05:13:14;97970.72;;;6.21;93.47
14242;BME280;7205;50.864;12.766;2023-04-08T05:15:41;97974.31;;;6.20;94.33
14242;BME280;7205;50.864;12.766;2023-04-08T05:18:10;97966.44;;;6.20;94.34
14242;BME280;7205;50.864;12.766;2023-04-08T05:20:36;97974.31;;;6.20;94.43
14242;BME280;7205;50.864;12.766;2023-04-08T05:23:03;97975.94;;;6.21;94.46
14242;BME280;7205;50.864;12.766;2023-04-08T05:25:31;97978.72;;;6.20;94.67
14242;BME280;7205;50.864;12.766;2023-04-08T05:27:58;97985.50;;;6.22;94.90
14242;BME280;7205;50.864;12.766;2023-04-08T05:30:25;97978.31;;;6.24;95.44
14242;BME280;7205;50.864;12.766;2023-04-08T05:32:52;97982.28;;;6.28;95.49
14242;BME280;7205;50.864;12.766;2023-04-08T05:35:19;97983.69;;;6.32;95.77
14242;BME280;7205;50.864;12.766;2023-04-08T05:37:46;97995.81;;;6.33;96.73
14242;BME280;7205;50.864;12.766;2023-04-08T05:40:13;97991.97;;;6.38;95.77
14242;BME280;7205;50.864;12.766;2023-04-08T05:42:41;97995.38;;;6.38;95.86
14242;BME280;7205;50.864;12.766;2023-04-08T05:45:08;97994.88;;;6.34;95.49
14242;BME280;7205;50.864;12.766;2023-04-08T05:47:35;97995.81;;;6.33;95.31
14242;BME280;7205;50.864;12.766;2023-04-08T05:50:02;98004.66;;;6.32;95.69
14242;BME280;7205;50.864;12.766;2023-04-08T05:52:29;97991.69;;;6.31;95.87
14242;BME280;7205;50.864;12.766;2023-04-08T05:54:55;97997.50;;;6.34;96.22
14242;BME280;7205;50.864;12.766;2023-04-08T05:57:22;97991.25;;;6.35;96.72
14242;BME280;7205;50.864;12.766;2023-04-08T05:59:50;97992.91;;;6.36;96.10
14242;BME280;7205;50.864;12.766;2023-04-08T06:02:18;97997.06;;;6.39;96.61
14242;BME280;7205;50.864;12.766;2023-04-08T06:04:45;98004.50;;;6.44;96.95
14242;BME280;7205;50.864;12.766;2023-04-08T06:07:12;98007.25;;;6.42;97.03
14242;BME280;7205;50.864;12.766;2023-04-08T06:09:38;98002.16;;;6.41;96.50
14242;BME280;7205;50.864;12.766;2023-04-08T06:12:05;98012.38;;;6.44;96.81
14242;BME280;7205;50.864;12.766;2023-04-08T06:14:32;98014.16;;;6.43;96.67
14242;BME280;7205;50.864;12.766;2023-04-08T06:17:00;98017.06;;;6.40;96.66
14242;BME280;7205;50.864;12.766;2023-04-08T06:19:27;98023.56;;;6.36;96.54
14242;BME280;7205;50.864;12.766;2023-04-08T06:21:53;98019.28;;;6.35;96.60
14242;BME280;7205;50.864;12.766;2023-04-08T06:24:23;98021.75;;;6.36;97.27
14242;BME280;7205;50.864;12.766;2023-04-08T06:26:50;98025.22;;;6.37;97.15
14242;BME280;7205;50.864;12.766;2023-04-08T06:29:18;98031.44;;;6.36;97.11
14242;BME280;7205;50.864;12.766;2023-04-08T06:31:45;98028.97;;;6.34;97.15
14242;BME280;7205;50.864;12.766;2023-04-08T06:34:13;98035.84;;;6.35;97.51
14242;BME280;7205;50.864;12.766;2023-04-08T06:36:40;98050.59;;;6.36;97.20
14242;BME280;7205;50.864;12.766;2023-04-08T06:39:07;98038.47;;;6.35;97.62
14242;BME280;7205;50.864;12.766;2023-04-08T06:41:33;98036.81;;;6.34;97.43
14242;BME280;7205;50.864;12.766;2023-04-08T06:44:15;98041.94;;;6.36;97.81
14242;BME280;7205;50.864;12.766;2023-04-08T06:46:42;98037.50;;;6.36;97.26
14242;BME280;7205;50.864;12.766;2023-04-08T06:49:08;98041.94;;;6.36;97.55
14242;BME280;7205;50.864;12.766;2023-04-08T06:51:36;98041.78;;;6.38;97.49
14242;BME280;7205;50.864;12.766;2023-04-08T06:54:03;98044.13;;;6.41;97.92
14242;BME280;7205;50.864;12.766;2023-04-08T06:56:30;98045.50;;;6.45;98.15
14242;BME280;7205;50.864;12.766;2023-04-08T06:58:57;98048.66;;;6.48;98.27
14242;BME280;7205;50.864;12.766;2023-04-08T07:01:24;98046.44;;;6.53;98.64
14242;BME280;7205;50.864;12.766;2023-04-08T07:03:50;98053.91;;;6.58;98.99
14242;BME280;7205;50.864;12.766;2023-04-08T07:06:17;98051.69;;;6.63;99.27
14242;BME280;7205;50.864;12.766;2023-04-08T07:08:45;98053.75;;;6.69;99.46
14242;BME280;7205;50.864;12.766;2023-04-08T07:11:12;98061.88;;;6.75;99.35
14242;BME280;7205;50.864;12.766;2023-04-08T07:13:42;98058.03;;;6.79;99.25
14242;BME280;7205;50.864;12.766;2023-04-08T07:16:09;98058.13;;;6.87;99.79
14242;BME280;7205;50.864;12.766;2023-04-08T07:18:36;98064.19;;;6.97;100.00
14242;BME280;7205;50.864;12.766;2023-04-08T07:21:03;98065.56;;;7.01;99.51
14242;BME280;7205;50.864;12.766;2023-04-08T07:23:29;98063.09;;;7.00;98.71
14242;BME280;7205;50.864;12.766;2023-04-08T07:26:02;98063.34;;;6.97;98.46
14242;BME280;7205;50.864;12.766;2023-04-08T07:28:29;98053.13;;;6.94;98.72
14242;BME280;7205;50.864;12.766;2023-04-08T07:30:56;98068.44;;;6.98;99.10
14242;BME280;7205;50.864;12.766;2023-04-08T07:33:23;98069.84;;;7.02;99.09
14242;BME280;7205;50.864;12.766;2023-04-08T07:35:50;98064.97;;;7.07;99.62
14242;BME280;7205;50.864;12.766;2023-04-08T07:38:17;98061.25;;;7.10;99.31
14242;BME280;7205;50.864;12.766;2023-04-08T07:40:44;98072.41;;;7.12;98.95
14242;BME280;7205;50.864;12.766;2023-04-08T07:43:12;98066.38;;;7.11;98.70
14242;BME280;7205;50.864;12.766;2023-04-08T07:45:39;98072.88;;;7.07;98.49
14242;BME280;7205;50.864;12.766;2023-04-08T07:48:06;98085.44;;;7.04;98.41
14242;BME280;7205;50.864;12.766;2023-04-08T07:50:35;98081.56;;;6.98;97.85
14242;BME280;7205;50.864;12.766;2023-04-08T07:53:02;98083.53;;;6.96;98.37
14242;BME280;7205;50.864;12.766;2023-04-08T07:55:32;98080.91;;;6.96;98.69
14242;BME280;7205;50.864;12.766;2023-04-08T07:57:59;98087.97;;;6.96;99.08
14242;BME280;7205;50.864;12.766;2023-04-08T08:00:27;98090.72;;;6.94;98.82
14242;BME280;7205;50.864;12.766;2023-04-08T08:02:55;98095.00;;;6.95;99.11
14242;BME280;7205;50.864;12.766;2023-04-08T08:05:22;98089.75;;;6.95;99.02
14242;BME280;7205;50.864;12.766;2023-04-08T08:07:49;98095.53;;;6.99;99.64
14242;BME280;7205;50.864;12.766;2023-04-08T08:10:16;98094.31;;;7.03;99.93
14242;BME280;7205;50.864;12.766;2023-04-08T08:12:42;98087.38;;;7.11;100.00
14242;BME280;7205;50.864;12.766;2023-04-08T08:15:10;98093.03;;;7.16;100.00
14242;BME280;7205;50.864;12.766;2023-04-08T08:17:38;98093.41;;;7.21;100.00
14242;BME280;7205;50.864;12.766;2023-04-08T08:20:06;98105.72;;;7.21;100.00
14242;BME280;7205;50.864;12.766;2023-04-08T08:22:33;98116.47;;;7.27;100.00
14242;BME280;7205;50.864;12.766;2023-04-08T08:25:00;98109.44;;;7.28;100.00
14242;BME280;7205;50.864;12.766;2023-04-08T08:27:26;98111.06;;;7.29;100.00
14242;BME280;7205;50.864;12.766;2023-04-08T08:29:53;98110.78;;;7.32;100.00
14242;BME280;7205;50.864;12.766;2023-04-08T08:32:21;98111.78;;;7.31;100.00
14242;BME280;7205;50.864;12.766;2023-04-08T08:34:49;98118.66;;;7.41;100.00
14242;BME280;7205;50.864;12.766;2023-04-08T08:37:16;98113.41;;;7.41;100.00
14242;BME280;7205;50.864;12.766;2023-04-08T08:39:43;98111.44;;;7.43;100.00
14242;BME280;7205;50.864;12.766;2023-04-08T08:42:18;98123.88;;;7.51;100.00
14242;BME280;7205;50.864;12.766;2023-04-08T08:44:46;98120.66;;;7.57;100.00
14242;BME280;7205;50.864;12.766;2023-04-08T08:47:13;98124.34;;;7.64;100.00
14242;BME280;7205;50.864;12.766;2023-04-08T08:49:39;98131.78;;;7.68;100.00
14242;BME280;7205;50.864;12.766;2023-04-08T08:52:07;98138.97;;;7.76;100.00
14242;BME280;7205;50.864;12.766;2023-04-08T08:54:35;98138.13;;;7.85;100.00
14242;BME280;7205;50.864;12.766;2023-04-08T08:57:02;98139.16;;;7.92;100.00
14242;BME280;7205;50.864;12.766;2023-04-08T08:59:29;98149.81;;;8.00;100.00
14242;BME280;7205;50.864;12.766;2023-04-08T09:01:56;98142.16;;;8.07;100.00
14242;BME280;7205;50.864;12.766;2023-04-08T09:04:23;98140.44;;;8.15;100.00
14242;BME280;7205;50.864;12.766;2023-04-08T09:07:08;98148.00;;;8.28;100.00
14242;BME280;7205;50.864;12.766;2023-04-08T09:09:47;98150.66;;;8.45;100.00
14242;BME280;7205;50.864;12.766;2023-04-08T09:12:14;98151.88;;;8.68;100.00
14242;BME280;7205;50.864;12.766;2023-04-08T09:14:41;98153.56;;;8.95;100.00
14242;BME280;7205;50.864;12.766;2023-04-08T09:17:08;98149.25;;;9.12;100.00
14242;BME280;7205;50.864;12.766;2023-04-08T09:19:35;98153.31;;;9.24;100.00
14242;BME280;7205;50.864;12.766;2023-04-08T09:22:06;98152.34;;;9.33;100.00
14242;BME280;7205;50.864;12.766;2023-04-08T09:24:35;98150.25;;;9.36;99.60
14242;BME280;7205;50.864;12.766;2023-04-08T09:27:02;98147.97;;;9.41;98.49
14242;BME280;7205;50.864;12.766;2023-04-08T09:29:29;98152.63;;;9.47;98.39
14242;BME280;7205;50.864;12.766;2023-04-08T09:31:57;98157.78;;;9.57;97.91
14242;BME280;7205;50.864;12.766;2023-04-08T09:34:25;98154.41;;;9.64;96.49
14242;BME280;7205;50.864;12.766;2023-04-08T09:36:56;98153.06;;;9.68;95.02
14242;BME280;7205;50.864;12.766;2023-04-08T09:39:24;98153.44;;;9.73;94.45
14242;BME280;7205;50.864;12.766;2023-04-08T09:41:54;98150.31;;;9.78;94.27
14242;BME280;7205;50.864;12.766;2023-04-08T09:44:27;98152.00;;;9.79;93.29
14242;BME280;7205;50.864;12.766;2023-04-08T09:47:00;98148.69;;;9.77;91.53
14242;BME280;7205;50.864;12.766;2023-04-08T09:49:33;98152.00;;;9.79;91.02
14242;BME280;7205;50.864;12.766;2023-04-08T09:52:06;98150.47;;;9.76;89.95
14242;BME280;7205;50.864;12.766;2023-04-08T09:54:38;98144.56;;;9.74;89.83
14242;BME280;7205;50.864;12.766;2023-04-08T09:57:12;98149.88;;;9.82;90.36
14242;BME280;7205;50.864;12.766;2023-04-08T09:59:44;98160.47;;;9.98;90.84
14242;BME280;7205;50.864;12.766;2023-04-08T10:02:20;98164.88;;;10.16;90.27
14242;BME280;7205;50.864;12.766;2023-04-08T10:04:51;98156.50;;;10.28;88.71
14242;BME280;7205;50.864;12.766;2023-04-08T10:07:20;98155.19;;;10.40;87.80
14242;BME280;7205;50.864;12.766;2023-04-08T10:09:47;98150.59;;;10.50;87.49
14242;BME280;7205;50.864;12.766;2023-04-08T10:12:15;98161.50;;;10.55;86.51
14242;BME280;7205;50.864;12.766;2023-04-08T10:17:50;98146.13;;;10.35;82.34
14242;BME280;7205;50.864;12.766;2023-04-08T10:20:42;98148.88;;;10.17;80.85
14242;BME280;7205;50.864;12.766;2023-04-08T10:23:10;98159.63;;;9.98;80.04
14242;BME280;7205;50.864;12.766;2023-04-08T10:25:39;98158.91;;;9.80;79.94
14242;BME280;7205;50.864;12.766;2023-04-08T10:28:26;98163.28;;;9.63;79.68
14242;BME280;7205;50.864;12.766;2023-04-08T10:30:54;98169.13;;;9.49;80.51
14242;BME280;7205;50.864;12.766;2023-04-08T10:33:23;98174.31;;;9.41;81.26
14242;BME280;7205;50.864;12.766;2023-04-08T10:35:58;98182.69;;;9.37;81.41
14242;BME280;7205;50.864;12.766;2023-04-08T10:38:25;98176.72;;;9.27;80.36
14242;BME280;7205;50.864;12.766;2023-04-08T10:40:53;98177.22;;;9.30;81.66
14242;BME280;7205;50.864;12.766;2023-04-08T10:43:20;98177.13;;;9.40;82.07
14242;BME280;7205;50.864;12.766;2023-04-08T10:45:52;98180.25;;;9.61;82.41
14242;BME280;7205;50.864;12.766;2023-04-08T10:48:20;98166.19;;;9.86;83.24
14242;BME280;7205;50.864;12.766;2023-04-08T10:50:52;98167.84;;;10.13;82.75
14242;BME280;7205;50.864;12.766;2023-04-08T10:53:25;98171.72;;;10.42;82.55
14242;BME280;7205;50.864;12.766;2023-04-08T10:55:52;98165.50;;;10.67;81.11
14242;BME280;7205;50.864;12.766;2023-04-08T10:58:20;98167.69;;;10.96;80.44
14242;BME280;7205;50.864;12.766;2023-04-08T11:00:47;98163.38;;;11.27;79.11
14242;BME280;7205;50.864;12.766;2023-04-08T11:03:15;98163.84;;;11.55;77.13
14242;BME280;7205;50.864;12.766;2023-04-08T11:05:42;98166.78;;;11.76;74.50
14242;BME280;7205;50.864;12.766;2023-04-08T11:08:08;98161.97;;;11.87;71.58
14242;BME280;7205;50.864;12.766;2023-04-08T11:10:37;98165.09;;;11.99;69.81
14242;BME280;7205;50.864;12.766;2023-04-08T11:13:06;98161.22;;;12.09;68.04
14242;BME280;7205;50.864;12.766;2023-04-08T11:15:34;98162.16;;;12.24;67.60
14242;BME280;7205;50.864;12.766;2023-04-08T11:18:02;98158.97;;;12.37;66.35
14242;BME280;7205;50.864;12.766;2023-04-08T11:20:31;98150.97;;;12.45;64.92
14242;BME280;7205;50.864;12.766;2023-04-08T11:22:58;98156.56;;;12.50;63.67
14242;BME280;7205;50.864;12.766;2023-04-08T11:25:26;98156.75;;;12.48;62.58
14242;BME280;7205;50.864;12.766;2023-04-08T11:27:53;98167.16;;;12.50;61.97
14242;BME280;7205;50.864;12.766;2023-04-08T11:30:20;98164.34;;;12.51;60.98
14242;BME280;7205;50.864;12.766;2023-04-08T11:32:48;98164.50;;;12.50;60.08
14242;BME280;7205;50.864;12.766;2023-04-08T11:35:16;98165.97;;;12.52;60.24
14242;BME280;7205;50.864;12.766;2023-04-08T11:37:44;98169.63;;;12.51;59.43
14242;BME280;7205;50.864;12.766;2023-04-08T11:40:12;98169.03;;;12.41;58.72
14242;BME280;7205;50.864;12.766;2023-04-08T11:42:39;98186.81;;;12.25;58.37
14242;BME280;7205;50.864;12.766;2023-04-08T11:45:09;98191.34;;;12.08;58.89
14242;BME280;7205;50.864;12.766;2023-04-08T11:47:37;98189.75;;;11.91;58.49
14242;BME280;7205;50.864;12.766;2023-04-08T11:50:06;98192.63;;;11.74;58.85
14242;BME280;7205;50.864;12.766;2023-04-08T11:52:45;98189.31;;;11.64;59.37
14242;BME280;7205;50.864;12.766;2023-04-08T11:55:21;98184.84;;;11.64;59.82
14242;BME280;7205;50.864;12.766;2023-04-08T11:57:48;98180.72;;;11.70;60.52
14242;BME280;7205;50.864;12.766;2023-04-08T12:00:15;98183.16;;;11.79;60.61
14242;BME280;7205;50.864;12.766;2023-04-08T12:02:57;98176.19;;;11.86;59.82
14242;BME280;7205;50.864;12.766;2023-04-08T12:05:24;98175.03;;;11.89;59.95
14242;BME280;7205;50.864;12.766;2023-04-08T12:07:51;98183.94;;;11.96;60.19
14242;BME280;7205;50.864;12.766;2023-04-08T12:10:18;98178.63;;;12.04;59.84
14242;BME280;7205;50.864;12.766;2023-04-08T12:12:45;98185.03;;;12.09;59.29
14242;BME280;7205;50.864;12.766;2023-04-08T12:15:11;98187.88;;;12.08;58.98
14242;BME280;7205;50.864;12.766;2023-04-08T12:17:38;98187.72;;;12.01;58.43
14242;BME280;7205;50.864;12.766;2023-04-08T12:20:07;98189.41;;;11.94;58.88
14242;BME280;7205;50.864;12.766;2023-04-08T12:22:34;98189.44;;;11.86;58.16
14242;BME280;7205;50.864;12.766;2023-04-08T12:25:01;98194.09;;;11.76;58.91
14242;BME280;7205;50.864;12.766;2023-04-08T12:27:28;98190.63;;;11.68;58.63
14242;BME280;7205;50.864;12.766;2023-04-08T12:29:57;98192.25;;;11.61;59.01
14242;BME280;7205;50.864;12.766;2023-04-08T12:32:24;98191.75;;;11.57;58.98
14242;BME280;7205;50.864;12.766;2023-04-08T12:34:51;98184.16;;;11.54;58.89
14242;BME280;7205;50.864;12.766;2023-04-08T12:37:19;98184.16;;;11.54;59.40
14242;BME280;7205;50.864;12.766;2023-04-08T12:39:46;98193.09;;;11.61;60.02
14242;BME280;7205;50.864;12.766;2023-04-08T12:42:14;98202.53;;;11.72;59.98
14242;BME280;7205;50.864;12.766;2023-04-08T12:44:40;98196.72;;;11.76;59.54
14242;BME280;7205;50.864;12.766;2023-04-08T12:47:07;98201.00;;;11.77;59.35
14242;BME280;7205;50.864;12.766;2023-04-08T12:49:34;98200.03;;;11.78;59.13
14242;BME280;7205;50.864;12.766;2023-04-08T12:52:01;98204.47;;;11.86;59.18
14242;BME280;7205;50.864;12.766;2023-04-08T12:54:29;98199.00;;;11.95;58.89
14242;BME280;7205;50.864;12.766;2023-04-08T12:56:56;98199.28;;;12.08;59.86
14242;BME280;7205;50.864;12.766;2023-04-08T12:59:23;98198.91;;;12.19;58.66
14242;BME280;7205;50.864;12.766;2023-04-08T13:01:50;98195.59;;;12.25;58.83
14242;BME280;7205;50.864;12.766;2023-04-08T13:04:17;98195.91;;;12.30;58.76
14242;BME280;7205;50.864;12.766;2023-04-08T13:06:44;98195.59;;;12.25;57.55
14242;BME280;7205;50.864;12.766;2023-04-08T13:09:11;98201.25;;;12.14;57.50
14242;BME280;7205;50.864;12.766;2023-04-08T13:11:40;98196.16;;;12.05;57.41
14242;BME280;7205;50.864;12.766;2023-04-08T13:14:07;98195.84;;;12.00;58.16
14242;BME280;7205;50.864;12.766;2023-04-08T13:16:34;98196.84;;;11.91;57.94